La Blanca, Texas
Current Conditions -  °F | °C
As of 2:55 AM on Saturday 22 Nov 2014 (Local Time) from KT65 Reporting Station
Broken Clouds Broken Clouds  
Wind Chill: 71°   Ceiling: 6000
Heat Index: 71°   Visibility: 7mi
Dew Point: 67°   Wind: 8mph
Humidity: 86%   Direction: 140°SE
Pressure: 29.97"   Gusts: NA
Location:  26.29°N, 98.04°W
Report Text: KT65 220855Z AUTO 14007KT 7SM BKN060 22/19 A2997 RMK AO2 LTG DSNT E T02180193
Loading
Personal Weather Stations






























Interactive Weather Map New forecast layout! Learn more

10-Day Weather Forecast

Advertisements
Track Severe Weather on mobile